sensor_id;sensor_type;location;lat;lon;timestamp;temperature;humidity
37158;DHT22;23050;51.776;22.638;2022-09-12T00:01:41;10.10;99.90
37158;DHT22;23050;51.776;22.638;2022-09-12T00:04:09;10.10;99.90
37158;DHT22;23050;51.776;22.638;2022-09-12T00:06:36;10.10;99.90
37158;DHT22;23050;51.776;22.638;2022-09-12T00:09:08;10.10;99.90
37158;DHT22;23050;51.776;22.638;2022-09-12T00:11:36;10.10;99.90
37158;DHT22;23050;51.776;22.638;2022-09-12T00:14:05;10.10;99.90
37158;DHT22;23050;51.776;22.638;2022-09-12T00:16:32;10.30;99.90
37158;DHT22;23050;51.776;22.638;2022-09-12T00:18:59;10.10;99.90
37158;DHT22;23050;51.776;22.638;2022-09-12T00:21:25;10.10;99.90
37158;DHT22;23050;51.776;22.638;2022-09-12T00:23:51;10.10;99.90
37158;DHT22;23050;51.776;22.638;2022-09-12T00:26:19;10.10;99.90
37158;DHT22;23050;51.776;22.638;2022-09-12T00:28:46;10.10;99.90
37158;DHT22;23050;51.776;22.638;2022-09-12T00:31:18;10.10;99.90
37158;DHT22;23050;51.776;22.638;2022-09-12T00:33:45;10.00;99.90
37158;DHT22;23050;51.776;22.638;2022-09-12T00:36:18;10.00;99.90
37158;DHT22;23050;51.776;22.638;2022-09-12T00:38:46;10.00;99.90
37158;DHT22;23050;51.776;22.638;2022-09-12T00:41:28;10.00;99.90
37158;DHT22;23050;51.776;22.638;2022-09-12T00:44:40;10.00;99.90
37158;DHT22;23050;51.776;22.638;2022-09-12T00:49:28;10.00;99.90
37158;DHT22;23050;51.776;22.638;2022-09-12T00:54:32;10.00;99.90
37158;DHT22;23050;51.776;22.638;2022-09-12T00:57:01;10.00;99.90
37158;DHT22;23050;51.776;22.638;2022-09-12T00:59:33;10.10;99.90
37158;DHT22;23050;51.776;22.638;2022-09-12T01:02:00;10.00;99.90
37158;DHT22;23050;51.776;22.638;2022-09-12T01:04:27;10.10;99.90
37158;DHT22;23050;51.776;22.638;2022-09-12T01:06:55;10.00;99.90
37158;DHT22;23050;51.776;22.638;2022-09-12T01:09:22;10.10;99.90
37158;DHT22;23050;51.776;22.638;2022-09-12T01:11:49;10.10;99.90
37158;DHT22;23050;51.776;22.638;2022-09-12T01:14:17;10.00;99.90
37158;DHT22;23050;51.776;22.638;2022-09-12T01:16:45;10.00;99.90
37158;DHT22;23050;51.776;22.638;2022-09-12T01:22:05;10.10;99.90
37158;DHT22;23050;51.776;22.638;2022-09-12T01:24:59;10.10;99.90
37158;DHT22;23050;51.776;22.638;2022-09-12T01:30:53;10.10;99.90
37158;DHT22;23050;51.776;22.638;2022-09-12T01:39:03;10.00;99.90
37158;DHT22;23050;51.776;22.638;2022-09-12T01:47:01;10.10;99.90
37158;DHT22;23050;51.776;22.638;2022-09-12T01:49:48;10.00;99.90
37158;DHT22;23050;51.776;22.638;2022-09-12T01:52:25;10.10;99.90
37158;DHT22;23050;51.776;22.638;2022-09-12T01:55:28;10.10;99.90
37158;DHT22;23050;51.776;22.638;2022-09-12T01:58:37;10.10;99.90
37158;DHT22;23050;51.776;22.638;2022-09-12T02:01:11;10.10;99.90
37158;DHT22;23050;51.776;22.638;2022-09-12T02:07:10;10.10;99.90
37158;DHT22;23050;51.776;22.638;2022-09-12T02:09:54;10.10;99.90
37158;DHT22;23050;51.776;22.638;2022-09-12T02:12:26;10.10;99.90
37158;DHT22;23050;51.776;22.638;2022-09-12T02:14:59;10.10;99.90
37158;DHT22;23050;51.776;22.638;2022-09-12T02:17:28;10.30;99.90
37158;DHT22;23050;51.776;22.638;2022-09-12T02:20:01;11.10;99.90
37158;DHT22;23050;51.776;22.638;2022-09-12T02:22:28;10.10;99.90
37158;DHT22;23050;51.776;22.638;2022-09-12T02:24:58;10.20;99.90
37158;DHT22;23050;51.776;22.638;2022-09-12T02:27:40;10.20;99.90
37158;DHT22;23050;51.776;22.638;2022-09-12T02:30:08;10.20;99.90
37158;DHT22;23050;51.776;22.638;2022-09-12T02:32:44;10.20;99.90
37158;DHT22;23050;51.776;22.638;2022-09-12T02:40:45;10.20;99.90
37158;DHT22;23050;51.776;22.638;2022-09-12T02:43:11;10.20;99.90
37158;DHT22;23050;51.776;22.638;2022-09-12T02:45:38;10.20;99.90
37158;DHT22;23050;51.776;22.638;2022-09-12T02:48:22;10.20;99.90
37158;DHT22;23050;51.776;22.638;2022-09-12T02:50:49;10.20;99.90
37158;DHT22;23050;51.776;22.638;2022-09-12T02:53:17;10.20;99.90
37158;DHT22;23050;51.776;22.638;2022-09-12T02:55:44;10.20;99.90
37158;DHT22;23050;51.776;22.638;2022-09-12T02:58:15;10.20;99.90
37158;DHT22;23050;51.776;22.638;2022-09-12T03:01:03;10.20;99.90
37158;DHT22;23050;51.776;22.638;2022-09-12T03:03:49;10.20;99.90
37158;DHT22;23050;51.776;22.638;2022-09-12T03:09:46;10.20;99.90
37158;DHT22;23050;51.776;22.638;2022-09-12T03:13:16;10.20;99.90
37158;DHT22;23050;51.776;22.638;2022-09-12T03:23:58;10.20;99.90
37158;DHT22;23050;51.776;22.638;2022-09-12T03:26:41;10.10;99.90
37158;DHT22;23050;51.776;22.638;2022-09-12T03:29:09;10.20;99.90
37158;DHT22;23050;51.776;22.638;2022-09-12T03:31:37;10.20;99.90
37158;DHT22;23050;51.776;22.638;2022-09-12T03:34:12;10.20;99.90
37158;DHT22;23050;51.776;22.638;2022-09-12T03:36:39;10.20;99.90
37158;DHT22;23050;51.776;22.638;2022-09-12T03:39:07;10.20;99.90
37158;DHT22;23050;51.776;22.638;2022-09-12T03:41:35;10.20;99.90
37158;DHT22;23050;51.776;22.638;2022-09-12T03:44:02;10.20;99.90
37158;DHT22;23050;51.776;22.638;2022-09-12T03:46:29;10.20;99.90
37158;DHT22;23050;51.776;22.638;2022-09-12T03:48:55;10.20;99.90
37158;DHT22;23050;51.776;22.638;2022-09-12T03:51:21;10.20;99.90
37158;DHT22;23050;51.776;22.638;2022-09-12T03:53:47;10.20;99.90
37158;DHT22;23050;51.776;22.638;2022-09-12T03:56:13;10.20;99.90
37158;DHT22;23050;51.776;22.638;2022-09-12T03:58:41;10.20;99.90
37158;DHT22;23050;51.776;22.638;2022-09-12T04:01:12;10.10;99.90
37158;DHT22;23050;51.776;22.638;2022-09-12T04:03:40;10.20;99.90
37158;DHT22;23050;51.776;22.638;2022-09-12T04:06:08;10.20;99.90
37158;DHT22;23050;51.776;22.638;2022-09-12T04:08:34;10.20;99.90
37158;DHT22;23050;51.776;22.638;2022-09-12T04:11:06;10.20;99.90
37158;DHT22;23050;51.776;22.638;2022-09-12T04:13:34;10.30;99.90
37158;DHT22;23050;51.776;22.638;2022-09-12T04:16:02;10.20;99.90
37158;DHT22;23050;51.776;22.638;2022-09-12T04:18:29;10.20;99.90
37158;DHT22;23050;51.776;22.638;2022-09-12T04:20:56;10.30;99.90
37158;DHT22;23050;51.776;22.638;2022-09-12T04:23:23;10.20;99.90
37158;DHT22;23050;51.776;22.638;2022-09-12T04:25:56;10.20;99.90
37158;DHT22;23050;51.776;22.638;2022-09-12T04:28:22;10.20;99.90
37158;DHT22;23050;51.776;22.638;2022-09-12T04:30:50;10.20;99.90
37158;DHT22;23050;51.776;22.638;2022-09-12T04:33:18;10.20;99.90
37158;DHT22;23050;51.776;22.638;2022-09-12T04:35:46;10.20;99.90
37158;DHT22;23050;51.776;22.638;2022-09-12T04:38:14;10.30;99.90
37158;DHT22;23050;51.776;22.638;2022-09-12T04:40:40;10.20;99.90
37158;DHT22;23050;51.776;22.638;2022-09-12T04:43:06;10.20;99.90
37158;DHT22;23050;51.776;22.638;2022-09-12T04:45:35;10.20;99.90
37158;DHT22;23050;51.776;22.638;2022-09-12T04:48:02;10.20;99.90
37158;DHT22;23050;51.776;22.638;2022-09-12T04:50:28;10.20;99.90
37158;DHT22;23050;51.776;22.638;2022-09-12T04:52:55;10.20;99.90
37158;DHT22;23050;51.776;22.638;2022-09-12T04:55:21;10.20;99.90
37158;DHT22;23050;51.776;22.638;2022-09-12T04:57:51;10.20;99.90
37158;DHT22;23050;51.776;22.638;2022-09-12T05:00:18;10.20;99.90
37158;DHT22;23050;51.776;22.638;2022-09-12T05:02:46;10.30;99.90
37158;DHT22;23050;51.776;22.638;2022-09-12T05:05:12;10.30;99.90
37158;DHT22;23050;51.776;22.638;2022-09-12T05:07:39;10.30;99.90
37158;DHT22;23050;51.776;22.638;2022-09-12T05:10:07;10.40;99.90
37158;DHT22;23050;51.776;22.638;2022-09-12T05:12:36;10.30;99.90
37158;DHT22;23050;51.776;22.638;2022-09-12T05:15:04;10.40;99.90
37158;DHT22;23050;51.776;22.638;2022-09-12T05:17:30;10.30;99.90
37158;DHT22;23050;51.776;22.638;2022-09-12T05:19:56;10.40;99.90
37158;DHT22;23050;51.776;22.638;2022-09-12T05:22:22;10.30;99.90
37158;DHT22;23050;51.776;22.638;2022-09-12T05:24:48;10.30;99.90
37158;DHT22;23050;51.776;22.638;2022-09-12T05:27:16;10.40;99.90
37158;DHT22;23050;51.776;22.638;2022-09-12T05:29:47;10.40;99.90
37158;DHT22;23050;51.776;22.638;2022-09-12T05:32:17;10.40;99.90
37158;DHT22;23050;51.776;22.638;2022-09-12T05:34:43;10.40;99.90
37158;DHT22;23050;51.776;22.638;2022-09-12T05:37:09;10.40;99.90
37158;DHT22;23050;51.776;22.638;2022-09-12T05:39:39;10.40;99.90
37158;DHT22;23050;51.776;22.638;2022-09-12T05:42:07;10.40;99.90
37158;DHT22;23050;51.776;22.638;2022-09-12T05:44:34;10.40;99.90
37158;DHT22;23050;51.776;22.638;2022-09-12T05:47:03;10.50;99.90
37158;DHT22;23050;51.776;22.638;2022-09-12T05:49:30;10.40;99.90
37158;DHT22;23050;51.776;22.638;2022-09-12T05:51:57;10.50;99.90
37158;DHT22;23050;51.776;22.638;2022-09-12T05:54:32;10.40;99.90
37158;DHT22;23050;51.776;22.638;2022-09-12T05:56:58;10.40;99.90
37158;DHT22;23050;51.776;22.638;2022-09-12T05:59:24;10.50;99.90
37158;DHT22;23050;51.776;22.638;2022-09-12T06:01:50;10.40;99.90
37158;DHT22;23050;51.776;22.638;2022-09-12T06:04:17;10.60;99.90
37158;DHT22;23050;51.776;22.638;2022-09-12T06:06:45;10.50;99.90
37158;DHT22;23050;51.776;22.638;2022-09-12T06:09:15;10.50;99.90
37158;DHT22;23050;51.776;22.638;2022-09-12T06:11:42;10.60;99.90
37158;DHT22;23050;51.776;22.638;2022-09-12T06:14:11;10.60;99.90
37158;DHT22;23050;51.776;22.638;2022-09-12T06:16:38;10.60;99.90
37158;DHT22;23050;51.776;22.638;2022-09-12T06:19:10;10.70;99.90
37158;DHT22;23050;51.776;22.638;2022-09-12T06:21:37;10.70;99.90
37158;DHT22;23050;51.776;22.638;2022-09-12T06:24:05;10.70;99.90
37158;DHT22;23050;51.776;22.638;2022-09-12T06:26:36;10.70;99.90
37158;DHT22;23050;51.776;22.638;2022-09-12T06:29:06;10.80;99.90
37158;DHT22;23050;51.776;22.638;2022-09-12T06:31:35;10.80;99.90
37158;DHT22;23050;51.776;22.638;2022-09-12T06:34:07;10.80;99.90
37158;DHT22;23050;51.776;22.638;2022-09-12T06:36:41;10.90;99.90
37158;DHT22;23050;51.776;22.638;2022-09-12T06:39:16;10.90;99.90
37158;DHT22;23050;51.776;22.638;2022-09-12T06:41:43;10.90;99.90
37158;DHT22;23050;51.776;22.638;2022-09-12T06:44:17;10.90;99.90
37158;DHT22;23050;51.776;22.638;2022-09-12T06:46:53;10.90;99.90
37158;DHT22;23050;51.776;22.638;2022-09-12T06:49:22;10.90;99.90
37158;DHT22;23050;51.776;22.638;2022-09-12T06:51:50;10.90;99.90
37158;DHT22;23050;51.776;22.638;2022-09-12T06:54:16;11.00;99.90
37158;DHT22;23050;51.776;22.638;2022-09-12T06:56:42;11.10;99.90
37158;DHT22;23050;51.776;22.638;2022-09-12T06:59:08;11.20;99.90
37158;DHT22;23050;51.776;22.638;2022-09-12T07:01:35;11.20;99.90
37158;DHT22;23050;51.776;22.638;2022-09-12T07:04:02;11.30;99.90
37158;DHT22;23050;51.776;22.638;2022-09-12T07:06:34;11.40;99.90
37158;DHT22;23050;51.776;22.638;2022-09-12T07:09:02;11.40;99.90
37158;DHT22;23050;51.776;22.638;2022-09-12T07:11:31;11.50;99.90
37158;DHT22;23050;51.776;22.638;2022-09-12T07:13:59;11.50;99.90
37158;DHT22;23050;51.776;22.638;2022-09-12T07:16:26;11.50;99.90
37158;DHT22;23050;51.776;22.638;2022-09-12T07:18:57;11.60;99.90
37158;DHT22;23050;51.776;22.638;2022-09-12T07:21:24;11.60;99.90
37158;DHT22;23050;51.776;22.638;2022-09-12T07:23:50;11.50;99.90
37158;DHT22;23050;51.776;22.638;2022-09-12T07:26:17;11.60;99.90
37158;DHT22;23050;51.776;22.638;2022-09-12T07:28:43;11.50;99.90
37158;DHT22;23050;51.776;22.638;2022-09-12T07:31:13;11.50;99.90
37158;DHT22;23050;51.776;22.638;2022-09-12T07:33:40;11.50;99.90
37158;DHT22;23050;51.776;22.638;2022-09-12T07:36:09;11.50;99.90
37158;DHT22;23050;51.776;22.638;2022-09-12T07:38:36;11.40;99.90
37158;DHT22;23050;51.776;22.638;2022-09-12T07:41:19;11.50;99.90
37158;DHT22;23050;51.776;22.638;2022-09-12T07:43:46;11.60;99.90
37158;DHT22;23050;51.776;22.638;2022-09-12T07:46:13;11.90;99.90
37158;DHT22;23050;51.776;22.638;2022-09-12T07:48:39;12.00;99.90
37158;DHT22;23050;51.776;22.638;2022-09-12T07:51:08;12.00;99.90
37158;DHT22;23050;51.776;22.638;2022-09-12T07:53:40;12.10;99.90
37158;DHT22;23050;51.776;22.638;2022-09-12T07:56:14;12.10;99.90
37158;DHT22;23050;51.776;22.638;2022-09-12T07:58:43;12.10;99.90
37158;DHT22;23050;51.776;22.638;2022-09-12T08:03:37;12.20;99.90
37158;DHT22;23050;51.776;22.638;2022-09-12T08:06:06;12.10;99.90
37158;DHT22;23050;51.776;22.638;2022-09-12T08:08:34;12.10;99.90
37158;DHT22;23050;51.776;22.638;2022-09-12T08:11:02;12.20;99.90
37158;DHT22;23050;51.776;22.638;2022-09-12T08:13:29;12.10;99.90
37158;DHT22;23050;51.776;22.638;2022-09-12T08:15:59;12.20;99.90
37158;DHT22;23050;51.776;22.638;2022-09-12T08:18:27;12.20;99.90
37158;DHT22;23050;51.776;22.638;2022-09-12T08:21:01;12.20;99.90
37158;DHT22;23050;51.776;22.638;2022-09-12T08:23:27;12.30;99.90
37158;DHT22;23050;51.776;22.638;2022-09-12T08:26:01;12.30;99.90
37158;DHT22;23050;51.776;22.638;2022-09-12T08:28:30;12.40;99.90
37158;DHT22;23050;51.776;22.638;2022-09-12T08:31:04;12.50;99.90
37158;DHT22;23050;51.776;22.638;2022-09-12T08:33:31;12.50;99.90
37158;DHT22;23050;51.776;22.638;2022-09-12T08:36:18;12.60;99.90
37158;DHT22;23050;51.776;22.638;2022-09-12T08:38:47;12.50;99.90
37158;DHT22;23050;51.776;22.638;2022-09-12T08:44:21;12.30;99.90
37158;DHT22;23050;51.776;22.638;2022-09-12T08:47:18;12.20;99.90
37158;DHT22;23050;51.776;22.638;2022-09-12T08:49:56;12.20;99.90
37158;DHT22;23050;51.776;22.638;2022-09-12T08:52:35;12.30;99.90
37158;DHT22;23050;51.776;22.638;2022-09-12T08:55:03;12.30;99.90
37158;DHT22;23050;51.776;22.638;2022-09-12T08:57:31;12.30;99.90
37158;DHT22;23050;51.776;22.638;2022-09-12T08:59:57;12.20;99.90
37158;DHT22;23050;51.776;22.638;2022-09-12T09:10:46;12.30;99.90
37158;DHT22;23050;51.776;22.638;2022-09-12T09:16:24;12.40;99.90
37158;DHT22;23050;51.776;22.638;2022-09-12T09:18:56;12.40;99.90
37158;DHT22;23050;51.776;22.638;2022-09-12T09:21:34;12.50;99.90
37158;DHT22;23050;51.776;22.638;2022-09-12T09:24:11;12.50;99.90
37158;DHT22;23050;51.776;22.638;2022-09-12T09:26:42;12.70;99.90
37158;DHT22;23050;51.776;22.638;2022-09-12T09:29:18;12.70;99.90
37158;DHT22;23050;51.776;22.638;2022-09-12T09:31:52;12.80;99.90
37158;DHT22;23050;51.776;22.638;2022-09-12T09:34:19;13.00;99.90
37158;DHT22;23050;51.776;22.638;2022-09-12T09:39:44;13.30;99.90
37158;DHT22;23050;51.776;22.638;2022-09-12T09:44:55;13.30;99.90
37158;DHT22;23050;51.776;22.638;2022-09-12T09:47:23;13.40;99.90
37158;DHT22;23050;51.776;22.638;2022-09-12T09:49:49;13.30;99.90
37158;DHT22;23050;51.776;22.638;2022-09-12T09:52:19;13.30;99.90
37158;DHT22;23050;51.776;22.638;2022-09-12T09:54:56;13.20;99.90
37158;DHT22;23050;51.776;22.638;2022-09-12T10:00:21;13.00;99.90
37158;DHT22;23050;51.776;22.638;2022-09-12T10:05:28;12.90;99.90
37158;DHT22;23050;51.776;22.638;2022-09-12T10:07:54;12.90;99.90
37158;DHT22;23050;51.776;22.638;2022-09-12T10:10:20;13.00;99.90
37158;DHT22;23050;51.776;22.638;2022-09-12T10:13:05;13.10;99.90
37158;DHT22;23050;51.776;22.638;2022-09-12T10:15:31;13.20;99.90
37158;DHT22;23050;51.776;22.638;2022-09-12T10:17:59;13.20;99.90
37158;DHT22;23050;51.776;22.638;2022-09-12T10:20:35;13.20;99.90
37158;DHT22;23050;51.776;22.638;2022-09-12T10:23:29;13.30;99.90
37158;DHT22;23050;51.776;22.638;2022-09-12T10:26:07;13.30;99.90
37158;DHT22;23050;51.776;22.638;2022-09-12T10:28:44;13.40;99.90
37158;DHT22;23050;51.776;22.638;2022-09-12T10:31:15;13.50;99.90
37158;DHT22;23050;51.776;22.638;2022-09-12T10:33:44;13.40;99.90
37158;DHT22;23050;51.776;22.638;2022-09-12T10:36:11;13.40;99.90
37158;DHT22;23050;51.776;22.638;2022-09-12T10:38:48;13.40;99.90
37158;DHT22;23050;51.776;22.638;2022-09-12T10:41:14;13.40;99.90
37158;DHT22;23050;51.776;22.638;2022-09-12T10:43:40;13.50;99.90
37158;DHT22;23050;51.776;22.638;2022-09-12T10:48:47;13.60;99.90
37158;DHT22;23050;51.776;22.638;2022-09-12T10:51:26;13.60;99.90
37158;DHT22;23050;51.776;22.638;2022-09-12T10:54:01;13.70;99.90
37158;DHT22;23050;51.776;22.638;2022-09-12T11:04:33;14.20;99.90
37158;DHT22;23050;51.776;22.638;2022-09-12T11:07:31;14.40;99.90
37158;DHT22;23050;51.776;22.638;2022-09-12T11:10:29;14.60;99.90
37158;DHT22;23050;51.776;22.638;2022-09-12T11:18:43;14.60;99.90
37158;DHT22;23050;51.776;22.638;2022-09-12T11:21:32;14.50;99.90
37158;DHT22;23050;51.776;22.638;2022-09-12T11:24:38;14.30;99.90
37158;DHT22;23050;51.776;22.638;2022-09-12T11:27:17;14.20;99.90
37158;DHT22;23050;51.776;22.638;2022-09-12T11:30:07;14.10;99.90
37158;DHT22;23050;51.776;22.638;2022-09-12T11:35:31;14.00;99.90
37158;DHT22;23050;51.776;22.638;2022-09-12T11:40:52;14.00;99.90
37158;DHT22;23050;51.776;22.638;2022-09-12T11:43:41;14.10;99.90
37158;DHT22;23050;51.776;22.638;2022-09-12T11:46:28;14.00;99.90
37158;DHT22;23050;51.776;22.638;2022-09-12T11:49:03;14.10;99.90
37158;DHT22;23050;51.776;22.638;2022-09-12T11:51:52;14.10;99.90
37158;DHT22;23050;51.776;22.638;2022-09-12T11:57:00;14.10;99.90
37158;DHT22;23050;51.776;22.638;2022-09-12T11:59:53;14.10;99.90
37158;DHT22;23050;51.776;22.638;2022-09-12T12:02:25;14.70;99.90
37158;DHT22;23050;51.776;22.638;2022-09-12T12:07:39;14.70;99.90
37158;DHT22;23050;51.776;22.638;2022-09-12T12:10:06;15.10;99.90
37158;DHT22;23050;51.776;22.638;2022-09-12T12:12:46;15.30;99.90
37158;DHT22;23050;51.776;22.638;2022-09-12T12:15:15;15.60;99.90
37158;DHT22;23050;51.776;22.638;2022-09-12T12:17:45;15.90;99.90
37158;DHT22;23050;51.776;22.638;2022-09-12T12:20:26;16.10;99.90
37158;DHT22;23050;51.776;22.638;2022-09-12T12:22:54;16.20;99.90
37158;DHT22;23050;51.776;22.638;2022-09-12T12:25:40;16.30;99.90
37158;DHT22;23050;51.776;22.638;2022-09-12T12:31:16;16.30;99.90
37158;DHT22;23050;51.776;22.638;2022-09-12T12:36:30;15.90;99.90
37158;DHT22;23050;51.776;22.638;2022-09-12T12:38:58;15.40;99.90
37158;DHT22;23050;51.776;22.638;2022-09-12T12:49:40;14.20;99.90
37158;DHT22;23050;51.776;22.638;2022-09-12T12:52:14;14.20;99.90
37158;DHT22;23050;51.776;22.638;2022-09-12T12:57:23;14.20;99.90
37158;DHT22;23050;51.776;22.638;2022-09-12T12:59:57;14.30;99.90
37158;DHT22;23050;51.776;22.638;2022-09-12T13:02:40;14.30;99.90
37158;DHT22;23050;51.776;22.638;2022-09-12T13:05:22;14.30;99.90
37158;DHT22;23050;51.776;22.638;2022-09-12T13:08:01;14.30;99.90
37158;DHT22;23050;51.776;22.638;2022-09-12T13:10:29;14.40;99.90
37158;DHT22;23050;51.776;22.638;2022-09-12T13:12:59;14.50;99.90
37158;DHT22;23050;51.776;22.638;2022-09-12T13:18:08;14.80;99.90
37158;DHT22;23050;51.776;22.638;2022-09-12T13:20:46;14.90;99.90
37158;DHT22;23050;51.776;22.638;2022-09-12T13:23:22;15.00;99.90
37158;DHT22;23050;51.776;22.638;2022-09-12T13:25:57;15.10;99.90
37158;DHT22;23050;51.776;22.638;2022-09-12T13:28:24;15.30;99.90
37158;DHT22;23050;51.776;22.638;2022-09-12T13:31:25;15.30;99.90
37158;DHT22;23050;51.776;22.638;2022-09-12T13:33:59;15.30;99.90
37158;DHT22;23050;51.776;22.638;2022-09-12T13:39:18;15.20;99.90
37158;DHT22;23050;51.776;22.638;2022-09-12T13:44:25;15.20;99.90
37158;DHT22;23050;51.776;22.638;2022-09-12T13:46:54;15.10;99.90
37158;DHT22;23050;51.776;22.638;2022-09-12T13:49:35;15.00;99.90
37158;DHT22;23050;51.776;22.638;2022-09-12T13:52:05;14.80;99.90
37158;DHT22;23050;51.776;22.638;2022-09-12T13:54:34;14.70;99.90
37158;DHT22;23050;51.776;22.638;2022-09-12T13:57:02;14.40;99.90
37158;DHT22;23050;51.776;22.638;2022-09-12T13:59:40;14.30;99.90
37158;DHT22;23050;51.776;22.638;2022-09-12T14:02:23;14.10;99.90
37158;DHT22;23050;51.776;22.638;2022-09-12T14:04:52;14.00;99.90
37158;DHT22;23050;51.776;22.638;2022-09-12T14:08:00;13.80;99.90
37158;DHT22;23050;51.776;22.638;2022-09-12T14:10:40;13.80;99.90
37158;DHT22;23050;51.776;22.638;2022-09-12T14:13:17;13.90;99.90
37158;DHT22;23050;51.776;22.638;2022-09-12T14:15:47;13.80;99.90
37158;DHT22;23050;51.776;22.638;2022-09-12T14:18:24;13.90;99.90
37158;DHT22;23050;51.776;22.638;2022-09-12T14:20:53;13.90;99.90
37158;DHT22;23050;51.776;22.638;2022-09-12T14:23:30;13.90;99.90
37158;DHT22;23050;51.776;22.638;2022-09-12T14:26:01;13.80;99.90
37158;DHT22;23050;51.776;22.638;2022-09-12T14:28:32;13.80;99.90
37158;DHT22;23050;51.776;22.638;2022-09-12T14:31:05;13.80;99.90
37158;DHT22;23050;51.776;22.638;2022-09-12T14:33:54;13.70;99.90
37158;DHT22;23050;51.776;22.638;2022-09-12T14:36:33;13.70;99.90
37158;DHT22;23050;51.776;22.638;2022-09-12T14:39:02;13.70;99.90
37158;DHT22;23050;51.776;22.638;2022-09-12T14:43:59;13.60;99.90
37158;DHT22;23050;51.776;22.638;2022-09-12T14:46:36;13.60;99.90
37158;DHT22;23050;51.776;22.638;2022-09-12T14:51:38;13.50;99.90
37158;DHT22;23050;51.776;22.638;2022-09-12T14:54:04;13.40;99.90
37158;DHT22;23050;51.776;22.638;2022-09-12T14:56:42;13.40;99.90
37158;DHT22;23050;51.776;22.638;2022-09-12T15:04:46;13.30;99.90
37158;DHT22;23050;51.776;22.638;2022-09-12T15:07:40;13.20;99.90
37158;DHT22;23050;51.776;22.638;2022-09-12T15:10:33;13.20;99.90
37158;DHT22;23050;51.776;22.638;2022-09-12T15:15:47;13.10;99.90
37158;DHT22;23050;51.776;22.638;2022-09-12T15:18:14;13.10;99.90
37158;DHT22;23050;51.776;22.638;2022-09-12T15:20:43;13.00;99.90
37158;DHT22;23050;51.776;22.638;2022-09-12T15:23:20;13.00;99.90
37158;DHT22;23050;51.776;22.638;2022-09-12T15:25:47;12.90;99.90
37158;DHT22;23050;51.776;22.638;2022-09-12T15:28:18;12.90;99.90
37158;DHT22;23050;51.776;22.638;2022-09-12T15:30:46;13.00;99.90
37158;DHT22;23050;51.776;22.638;2022-09-12T15:33:17;13.10;99.90
37158;DHT22;23050;51.776;22.638;2022-09-12T15:35:44;13.00;99.90
37158;DHT22;23050;51.776;22.638;2022-09-12T15:38:10;13.10;99.90
37158;DHT22;23050;51.776;22.638;2022-09-12T15:40:37;13.10;99.90
37158;DHT22;23050;51.776;22.638;2022-09-12T15:43:03;13.10;99.90
37158;DHT22;23050;51.776;22.638;2022-09-12T15:45:32;13.00;99.90
37158;DHT22;23050;51.776;22.638;2022-09-12T15:47:58;13.00;99.90
37158;DHT22;23050;51.776;22.638;2022-09-12T15:50:25;13.00;99.90
37158;DHT22;23050;51.776;22.638;2022-09-12T15:52:54;12.90;99.90
37158;DHT22;23050;51.776;22.638;2022-09-12T15:55:22;12.90;99.90
37158;DHT22;23050;51.776;22.638;2022-09-12T15:57:49;12.90;99.90
37158;DHT22;23050;51.776;22.638;2022-09-12T16:00:18;12.80;99.90
37158;DHT22;23050;51.776;22.638;2022-09-12T16:02:46;12.70;99.90
37158;DHT22;23050;51.776;22.638;2022-09-12T16:05:16;12.70;99.90
37158;DHT22;23050;51.776;22.638;2022-09-12T16:07:53;12.60;99.90
37158;DHT22;23050;51.776;22.638;2022-09-12T16:10:28;12.70;99.90
37158;DHT22;23050;51.776;22.638;2022-09-12T16:12:56;12.50;99.90
37158;DHT22;23050;51.776;22.638;2022-09-12T16:15:25;12.50;99.90
37158;DHT22;23050;51.776;22.638;2022-09-12T16:17:52;12.50;99.90
37158;DHT22;23050;51.776;22.638;2022-09-12T16:20:18;12.40;99.90
37158;DHT22;23050;51.776;22.638;2022-09-12T16:22:45;12.40;99.90
37158;DHT22;23050;51.776;22.638;2022-09-12T16:25:14;12.40;99.90
37158;DHT22;23050;51.776;22.638;2022-09-12T16:27:41;12.40;99.90
37158;DHT22;23050;51.776;22.638;2022-09-12T16:30:15;12.40;99.90
37158;DHT22;23050;51.776;22.638;2022-09-12T16:32:41;12.30;99.90
37158;DHT22;23050;51.776;22.638;2022-09-12T16:35:07;12.30;99.90
37158;DHT22;23050;51.776;22.638;2022-09-12T16:37:34;12.30;99.90
37158;DHT22;23050;51.776;22.638;2022-09-12T16:40:01;12.30;99.90
37158;DHT22;23050;51.776;22.638;2022-09-12T16:42:27;12.30;99.90
37158;DHT22;23050;51.776;22.638;2022-09-12T16:44:53;12.30;99.90
37158;DHT22;23050;51.776;22.638;2022-09-12T16:47:20;12.20;99.90
37158;DHT22;23050;51.776;22.638;2022-09-12T16:49:48;12.20;99.90
37158;DHT22;23050;51.776;22.638;2022-09-12T16:52:15;12.20;99.90
37158;DHT22;23050;51.776;22.638;2022-09-12T16:54:44;12.20;99.90
37158;DHT22;23050;51.776;22.638;2022-09-12T16:57:10;12.10;99.90
37158;DHT22;23050;51.776;22.638;2022-09-12T16:59:37;12.00;99.90
37158;DHT22;23050;51.776;22.638;2022-09-12T17:02:03;12.10;99.90
37158;DHT22;23050;51.776;22.638;2022-09-12T17:04:29;12.10;99.90
37158;DHT22;23050;51.776;22.638;2022-09-12T17:06:58;12.10;99.90
37158;DHT22;23050;51.776;22.638;2022-09-12T17:09:24;12.10;99.90
37158;DHT22;23050;51.776;22.638;2022-09-12T17:11:52;12.10;99.90
37158;DHT22;23050;51.776;22.638;2022-09-12T17:14:19;12.10;99.90
37158;DHT22;23050;51.776;22.638;2022-09-12T17:16:48;12.00;99.90
37158;DHT22;23050;51.776;22.638;2022-09-12T17:19:24;12.00;99.90
37158;DHT22;23050;51.776;22.638;2022-09-12T17:21:58;12.10;99.90
37158;DHT22;23050;51.776;22.638;2022-09-12T17:24:24;12.00;99.90
37158;DHT22;23050;51.776;22.638;2022-09-12T17:26:50;12.00;99.90
37158;DHT22;23050;51.776;22.638;2022-09-12T17:29:19;12.00;99.90
37158;DHT22;23050;51.776;22.638;2022-09-12T17:31:45;12.00;99.90
37158;DHT22;23050;51.776;22.638;2022-09-12T17:34:11;11.90;99.90
37158;DHT22;23050;51.776;22.638;2022-09-12T17:36:39;11.80;99.90
37158;DHT22;23050;51.776;22.638;2022-09-12T17:39:05;11.90;99.90
37158;DHT22;23050;51.776;22.638;2022-09-12T17:41:32;11.80;99.90
37158;DHT22;23050;51.776;22.638;2022-09-12T17:43:59;11.90;99.90
37158;DHT22;23050;51.776;22.638;2022-09-12T17:46:32;11.90;99.90
37158;DHT22;23050;51.776;22.638;2022-09-12T17:49:00;11.90;99.90
37158;DHT22;23050;51.776;22.638;2022-09-12T17:51:27;11.80;99.90
37158;DHT22;23050;51.776;22.638;2022-09-12T17:56:27;11.80;99.90
37158;DHT22;23050;51.776;22.638;2022-09-12T17:58:55;11.90;99.90
37158;DHT22;23050;51.776;22.638;2022-09-12T18:01:23;11.80;99.90